UAE921 OMDB-HECA
Flight info
| Callsign | UAE921 |
|---|---|
| Flight time | N/A |
| Altitude | 38000 |
| Route | SENPA N571 ALPOB L768 VATIM L550 NOVPA N697 MENLI L677 CVO |
| Aircraft | B77W/H-SDE1E2E3FGHIJ2J3J4J5M1RWXY/LB1D1 |
Departure
| Time | 2026-05-06 17:03 |
|---|---|
| Airport | Dubai International Airport (OMDB) |
Arrival
| Time | N/A |
|---|---|
| Airport | Cairo International Airport (HECA) |
| Time | Latitude | Longitude | Altitude | Speed | Heading |
|---|---|---|---|---|---|
| 2026-05-06 16:16 | 25.24889 | 55.36296 | 30 ft | 0 kts | 212° |
| 2026-05-06 16:43 | 25.24892 | 55.36297 | 26 ft | 2 kts | 211° |
| 2026-05-06 16:43 | 25.24905 | 55.36308 | 26 ft | 2 kts | 218° |
| 2026-05-06 16:43 | 25.24918 | 55.36320 | 27 ft | 2 kts | 226° |
| 2026-05-06 16:43 | 25.24929 | 55.36333 | 25 ft | 2 kts | 236° |
| 2026-05-06 16:44 | 25.24937 | 55.36349 | 27 ft | 2 kts | 250° |
| 2026-05-06 16:44 | 25.24941 | 55.36367 | 26 ft | 2 kts | 267° |
| 2026-05-06 16:44 | 25.24940 | 55.36385 | 26 ft | 2 kts | 283° |
| 2026-05-06 16:44 | 25.24935 | 55.36402 | 24 ft | 2 kts | 295° |
| 2026-05-06 16:45 | 25.24930 | 55.36413 | 25 ft | 1 kts | 301° |
| 2026-05-06 16:45 | 25.24930 | 55.36415 | 25 ft | 0 kts | 301° |
| 2026-05-06 16:51 | 25.24931 | 55.36413 | 25 ft | 3 kts | 301° |
| 2026-05-06 16:51 | 25.24985 | 55.36315 | 26 ft | 27 kts | 303° |
| 2026-05-06 16:52 | 25.25090 | 55.36131 | 26 ft | 28 kts | 301° |
| 2026-05-06 16:52 | 25.25155 | 55.36015 | 26 ft | 26 kts | 302° |
| 2026-05-06 16:52 | 25.25249 | 55.35848 | 29 ft | 26 kts | 302° |
| 2026-05-06 16:52 | 25.25342 | 55.35681 | 29 ft | 26 kts | 301° |
| 2026-05-06 16:53 | 25.25436 | 55.35515 | 29 ft | 25 kts | 302° |
| 2026-05-06 16:53 | 25.25529 | 55.35349 | 30 ft | 25 kts | 302° |
| 2026-05-06 16:53 | 25.25615 | 55.35197 | 32 ft | 16 kts | 308° |
| 2026-05-06 16:53 | 25.25633 | 55.35175 | 29 ft | 6 kts | 312° |
| 2026-05-06 16:54 | 25.25675 | 55.35160 | 27 ft | 7 kts | 4° |
| 2026-05-06 16:54 | 25.25686 | 55.35163 | 31 ft | 1 kts | 12° |
| 2026-05-06 16:54 | 25.25692 | 55.35165 | 31 ft | 1 kts | 14° |
| 2026-05-06 16:54 | 25.25703 | 55.35169 | 30 ft | 2 kts | 20° |
| 2026-05-06 16:55 | 25.25718 | 55.35176 | 30 ft | 3 kts | 26° |
| 2026-05-06 16:55 | 25.25737 | 55.35188 | 30 ft | 3 kts | 28° |
| 2026-05-06 16:55 | 25.25758 | 55.35201 | 31 ft | 4 kts | 31° |
| 2026-05-06 16:55 | 25.25782 | 55.35218 | 29 ft | 4 kts | 31° |
| 2026-05-06 16:56 | 25.25810 | 55.35237 | 30 ft | 5 kts | 30° |
| 2026-05-06 16:56 | 25.25848 | 55.35260 | 29 ft | 7 kts | 30° |
| 2026-05-06 16:56 | 25.25888 | 55.35287 | 26 ft | 8 kts | 31° |
| 2026-05-06 16:56 | 25.25965 | 55.35344 | 27 ft | 16 kts | 45° |
| 2026-05-06 16:57 | 25.26010 | 55.35453 | 27 ft | 16 kts | 84° |
| 2026-05-06 16:57 | 25.25980 | 55.35569 | 28 ft | 16 kts | 118° |
| 2026-05-06 16:57 | 25.25923 | 55.35673 | 28 ft | 16 kts | 122° |
| 2026-05-06 16:57 | 25.25865 | 55.35777 | 28 ft | 16 kts | 121° |
| 2026-05-06 16:58 | 25.25801 | 55.35892 | 28 ft | 21 kts | 122° |
| 2026-05-06 16:58 | 25.25714 | 55.36046 | 28 ft | 26 kts | 122° |
| 2026-05-06 16:58 | 25.25611 | 55.36230 | 29 ft | 29 kts | 121° |
| 2026-05-06 16:58 | 25.25505 | 55.36420 | 29 ft | 29 kts | 121° |
| 2026-05-06 16:59 | 25.25399 | 55.36609 | 29 ft | 29 kts | 122° |
| 2026-05-06 16:59 | 25.25292 | 55.36798 | 29 ft | 29 kts | 122° |
| 2026-05-06 16:59 | 25.25185 | 55.36988 | 29 ft | 29 kts | 122° |
| 2026-05-06 16:59 | 25.25079 | 55.37177 | 30 ft | 29 kts | 122° |
| 2026-05-06 17:00 | 25.24972 | 55.37366 | 30 ft | 29 kts | 122° |
| 2026-05-06 17:00 | 25.24865 | 55.37556 | 30 ft | 29 kts | 122° |
| 2026-05-06 17:00 | 25.24760 | 55.37743 | 30 ft | 26 kts | 122° |
| 2026-05-06 17:00 | 25.24742 | 55.37775 | 29 ft | 3 kts | 122° |
| 2026-05-06 17:01 | 25.24731 | 55.37796 | 29 ft | 4 kts | 122° |
| 2026-05-06 17:01 | 25.24710 | 55.37832 | 29 ft | 7 kts | 122° |
| 2026-05-06 17:01 | 25.24680 | 55.37886 | 29 ft | 9 kts | 119° |
| 2026-05-06 17:01 | 25.24687 | 55.37950 | 30 ft | 9 kts | 55° |
| 2026-05-06 17:02 | 25.24733 | 55.37994 | 32 ft | 9 kts | 35° |
| 2026-05-06 17:02 | 25.24785 | 55.38024 | 35 ft | 8 kts | 5° |
| 2026-05-06 17:02 | 25.24818 | 55.38002 | 34 ft | 1 kts | 308° |
| 2026-05-06 17:02 | 25.24825 | 55.37991 | 34 ft | 2 kts | 306° |
| 2026-05-06 17:03 | 25.24933 | 55.37800 | 35 ft | 81 kts | 301° |
| 2026-05-06 17:03 | 25.25435 | 55.36893 | 38 ft | 193 kts | 301° |
| 2026-05-06 17:03 | 25.26181 | 55.35524 | 1013 ft | 205 kts | 303° |
| 2026-05-06 17:03 | 25.26911 | 55.34221 | 2583 ft | 196 kts | 303° |
| 2026-05-06 17:04 | 25.27641 | 55.32909 | 3347 ft | 203 kts | 303° |
| 2026-05-06 17:04 | 25.28406 | 55.31539 | 3921 ft | 220 kts | 303° |
| 2026-05-06 17:04 | 25.29272 | 55.29973 | 4022 ft | 257 kts | 299° |
| 2026-05-06 17:04 | 25.29793 | 55.28056 | 4022 ft | 265 kts | 278° |
| 2026-05-06 17:05 | 25.29952 | 55.26008 | 4006 ft | 269 kts | 274° |
| 2026-05-06 17:05 | 25.30071 | 55.23949 | 4012 ft | 269 kts | 274° |
| 2026-05-06 17:05 | 25.30195 | 55.21887 | 4094 ft | 269 kts | 275° |
| 2026-05-06 17:05 | 25.30340 | 55.19811 | 4432 ft | 272 kts | 275° |
| 2026-05-06 17:06 | 25.30441 | 55.17738 | 4891 ft | 269 kts | 269° |
| 2026-05-06 17:06 | 25.30316 | 55.15686 | 5677 ft | 268 kts | 265° |
| 2026-05-06 17:06 | 25.30127 | 55.13593 | 6534 ft | 279 kts | 265° |
| 2026-05-06 17:06 | 25.29932 | 55.11430 | 7371 ft | 287 kts | 265° |
| 2026-05-06 17:07 | 25.29741 | 55.09218 | 8300 ft | 292 kts | 265° |
| 2026-05-06 17:07 | 25.29555 | 55.06969 | 9275 ft | 296 kts | 265° |
| 2026-05-06 17:07 | 25.29372 | 55.04686 | 10178 ft | 301 kts | 265° |
| 2026-05-06 17:07 | 25.29187 | 55.02335 | 10822 ft | 317 kts | 266° |
| 2026-05-06 17:08 | 25.28988 | 54.99760 | 11116 ft | 345 kts | 266° |
| 2026-05-06 17:08 | 25.28780 | 54.97076 | 11849 ft | 355 kts | 266° |
| 2026-05-06 17:08 | 25.28572 | 54.94338 | 12742 ft | 360 kts | 267° |
| 2026-05-06 17:08 | 25.28463 | 54.91561 | 13710 ft | 362 kts | 269° |
| 2026-05-06 17:09 | 25.28406 | 54.88802 | 14567 ft | 366 kts | 270° |
| 2026-05-06 17:09 | 25.28340 | 54.85943 | 15443 ft | 369 kts | 269° |
| 2026-05-06 17:09 | 25.28264 | 54.83096 | 16315 ft | 373 kts | 269° |
| 2026-05-06 17:09 | 25.28181 | 54.80216 | 17200 ft | 377 kts | 269° |
| 2026-05-06 17:10 | 25.28094 | 54.77303 | 18094 ft | 381 kts | 269° |
| 2026-05-06 17:10 | 25.28076 | 54.74365 | 18864 ft | 383 kts | 276° |
| 2026-05-06 17:10 | 25.28649 | 54.71489 | 19481 ft | 387 kts | 287° |
| 2026-05-06 17:10 | 25.29434 | 54.68623 | 20184 ft | 393 kts | 287° |
| 2026-05-06 17:11 | 25.30225 | 54.65725 | 21042 ft | 395 kts | 286° |
| 2026-05-06 17:11 | 25.30998 | 54.62808 | 21925 ft | 396 kts | 286° |
| 2026-05-06 17:11 | 25.31753 | 54.59865 | 22728 ft | 400 kts | 285° |
| 2026-05-06 17:11 | 25.32505 | 54.56887 | 23467 ft | 404 kts | 285° |
| 2026-05-06 17:12 | 25.33260 | 54.53883 | 24117 ft | 408 kts | 285° |
| 2026-05-06 17:12 | 25.34046 | 54.50863 | 24822 ft | 409 kts | 286° |
| 2026-05-06 17:12 | 25.34862 | 54.47849 | 25557 ft | 410 kts | 286° |
| 2026-05-06 17:12 | 25.35690 | 54.44823 | 26271 ft | 412 kts | 286° |
| 2026-05-06 17:13 | 25.36530 | 54.41743 | 26503 ft | 427 kts | 285° |
| 2026-05-06 17:13 | 25.37397 | 54.38544 | 26615 ft | 442 kts | 285° |
| 2026-05-06 17:13 | 25.38290 | 54.35238 | 26793 ft | 453 kts | 285° |
| 2026-05-06 17:13 | 25.39197 | 54.31868 | 27091 ft | 461 kts | 285° |
| 2026-05-06 17:14 | 25.40113 | 54.28466 | 27577 ft | 463 kts | 285° |
| 2026-05-06 17:14 | 25.41004 | 54.25048 | 28115 ft | 463 kts | 284° |
| 2026-05-06 17:14 | 25.41855 | 54.21614 | 28648 ft | 463 kts | 284° |
| 2026-05-06 17:14 | 25.42696 | 54.18166 | 29070 ft | 465 kts | 284° |
| 2026-05-06 17:15 | 25.43547 | 54.14704 | 29460 ft | 468 kts | 284° |
| 2026-05-06 17:15 | 25.44409 | 54.11223 | 29848 ft | 469 kts | 284° |
| 2026-05-06 17:15 | 25.45267 | 54.07747 | 30265 ft | 468 kts | 283° |
| 2026-05-06 17:15 | 25.46107 | 54.04277 | 30766 ft | 465 kts | 283° |
| 2026-05-06 17:16 | 25.46945 | 54.00786 | 31280 ft | 462 kts | 283° |
| 2026-05-06 17:16 | 25.47764 | 53.97361 | 31778 ft | 460 kts | 283° |
| 2026-05-06 17:16 | 25.48571 | 53.93991 | 32238 ft | 458 kts | 283° |
| 2026-05-06 17:16 | 25.49395 | 53.90550 | 32702 ft | 456 kts | 283° |
| 2026-05-06 17:17 | 25.50208 | 53.87157 | 33174 ft | 454 kts | 283° |
| 2026-05-06 17:17 | 25.51016 | 53.83786 | 33655 ft | 452 kts | 282° |
| 2026-05-06 17:17 | 25.51819 | 53.80433 | 34065 ft | 450 kts | 282° |
| 2026-05-06 17:17 | 25.52620 | 53.77080 | 34425 ft | 449 kts | 282° |
| 2026-05-06 17:18 | 25.53418 | 53.73740 | 34763 ft | 449 kts | 282° |
| 2026-05-06 17:18 | 25.54216 | 53.70405 | 35119 ft | 448 kts | 282° |
| 2026-05-06 17:18 | 25.55012 | 53.67081 | 35443 ft | 447 kts | 282° |
| 2026-05-06 17:18 | 25.55808 | 53.63753 | 35781 ft | 446 kts | 282° |
| 2026-05-06 17:19 | 25.56600 | 53.60436 | 36123 ft | 445 kts | 282° |
| 2026-05-06 17:19 | 25.57388 | 53.57133 | 36444 ft | 444 kts | 282° |
| 2026-05-06 17:19 | 25.58175 | 53.53833 | 36764 ft | 443 kts | 282° |
| 2026-05-06 17:19 | 25.58958 | 53.50541 | 37075 ft | 442 kts | 282° |
| 2026-05-06 17:20 | 25.59740 | 53.47251 | 37388 ft | 441 kts | 282° |
| 2026-05-06 17:20 | 25.60518 | 53.43974 | 37697 ft | 440 kts | 282° |
| 2026-05-06 17:20 | 25.61299 | 53.40680 | 37745 ft | 444 kts | 282° |
| 2026-05-06 17:21 | 25.62864 | 53.34058 | 37803 ft | 444 kts | 282° |
| 2026-05-06 17:21 | 25.64414 | 53.27490 | 37802 ft | 438 kts | 281° |
| 2026-05-06 17:22 | 25.65946 | 53.20976 | 37816 ft | 436 kts | 281° |
| 2026-05-06 17:22 | 25.67484 | 53.14418 | 37819 ft | 441 kts | 281° |
| 2026-05-06 17:23 | 25.69039 | 53.07775 | 37822 ft | 449 kts | 281° |
| 2026-05-06 17:23 | 25.70869 | 53.01135 | 37819 ft | 453 kts | 288° |
| 2026-05-06 17:24 | 25.73114 | 52.95840 | 37824 ft | 456 kts | 294° |
| 2026-05-06 17:24 | 25.76095 | 52.89632 | 37819 ft | 455 kts | 294° |
| 2026-05-06 17:25 | 25.79050 | 52.83441 | 37823 ft | 453 kts | 293° |
| 2026-05-06 17:25 | 25.81967 | 52.77264 | 37823 ft | 451 kts | 293° |
| 2026-05-06 17:26 | 25.84862 | 52.71110 | 37824 ft | 449 kts | 293° |
| 2026-05-06 17:26 | 25.87744 | 52.64977 | 37829 ft | 448 kts | 293° |
| 2026-05-06 17:27 | 25.90609 | 52.58840 | 37828 ft | 446 kts | 292° |
| 2026-05-06 17:27 | 25.93337 | 52.52651 | 37829 ft | 446 kts | 291° |
| 2026-05-06 17:28 | 25.96070 | 52.46396 | 37830 ft | 446 kts | 291° |
| 2026-05-06 17:28 | 25.98800 | 52.40197 | 37833 ft | 447 kts | 291° |
| 2026-05-06 17:29 | 26.01557 | 52.34002 | 37833 ft | 448 kts | 292° |
| 2026-05-06 17:29 | 26.04333 | 52.27800 | 37834 ft | 448 kts | 292° |
| 2026-05-06 17:30 | 26.07105 | 52.21589 | 37831 ft | 448 kts | 291° |
| 2026-05-06 17:30 | 26.09871 | 52.15373 | 37831 ft | 448 kts | 291° |
| 2026-05-06 17:31 | 26.12636 | 52.09149 | 37836 ft | 448 kts | 291° |
| 2026-05-06 17:31 | 26.15394 | 52.02933 | 37837 ft | 448 kts | 291° |
| 2026-05-06 17:32 | 26.18160 | 51.96722 | 37834 ft | 447 kts | 292° |
| 2026-05-06 17:32 | 26.20942 | 51.90541 | 37836 ft | 446 kts | 291° |
| 2026-05-06 17:33 | 26.23664 | 51.84342 | 37839 ft | 445 kts | 291° |
| 2026-05-06 17:33 | 26.26393 | 51.78154 | 37839 ft | 445 kts | 291° |
| 2026-05-06 17:34 | 26.29148 | 51.71992 | 37840 ft | 444 kts | 291° |
| 2026-05-06 17:34 | 26.31893 | 51.65833 | 37840 ft | 443 kts | 291° |
| 2026-05-06 17:35 | 26.34632 | 51.59686 | 37841 ft | 443 kts | 291° |
| 2026-05-06 17:35 | 26.37378 | 51.53499 | 37842 ft | 441 kts | 290° |
| 2026-05-06 17:36 | 26.40570 | 51.43959 | 37849 ft | 437 kts | 284° |
| 2026-05-06 17:36 | 26.42594 | 51.37571 | 37843 ft | 437 kts | 285° |
| 2026-05-06 17:37 | 26.44641 | 51.31179 | 37844 ft | 437 kts | 285° |
| 2026-05-06 17:37 | 26.46684 | 51.24787 | 37846 ft | 438 kts | 284° |
| 2026-05-06 17:38 | 26.48726 | 51.18384 | 37843 ft | 438 kts | 284° |
| 2026-05-06 17:38 | 26.50767 | 51.11974 | 37846 ft | 438 kts | 284° |
| 2026-05-06 17:39 | 26.52806 | 51.05557 | 37848 ft | 438 kts | 284° |
| 2026-05-06 17:39 | 26.54842 | 50.99140 | 37847 ft | 438 kts | 284° |
| 2026-05-06 17:40 | 26.56875 | 50.92722 | 37847 ft | 438 kts | 284° |
| 2026-05-06 17:40 | 26.58885 | 50.86297 | 37848 ft | 438 kts | 284° |